Centralia, WA (98531)

5:03 PM PDT on August 30, 2016 (GMT -0700)
Hunters Walk | | Change Station

Elev 187 ft 46.74 °N, 122.96 °W | Updated 57 seconds ago

Mostly Cloudy
Mostly Cloudy
70.5 °F
Feels Like 77 °F
N
3.2
Wind Variable Wind from SSE

Today
High -- | Low -- °F
--% Chance of Precip.
Yesterday
High -- | Low -- °F
Precip. -- in
Pressure 30.00 in
Visibility 10.0 miles
Clouds Mostly Cloudy 5000 ft
Heat Index 77 °F
Dew Point 54 °F
Humidity 55%
Rainfall 0.00 in
Snow Depth Not available.
6:29 AM 7:53 PM
Waning Crescent, 2% visible
METAR KCLS 302355Z AUTO VRB05KT 10SM BKN050 22/13 A3000 RMK AO2
Pressure 30.00 in
Visibility 10.0 miles
Clouds Mostly Cloudy 5000 ft
Heat Index 77 °F
Dew Point 54 °F
Humidity 55%
Rainfall 0.00 in
Snow Depth Not available.
6:29 AM 7:53 PM
Waning Crescent, 2% visible
METAR KCLS 302355Z AUTO VRB05KT 10SM BKN050 22/13 A3000 RMK AO2

10-Day Weather Forecast

Almanac

Astronomy

Aug. 30, 2016 Rise Set
Actual Time
Civil Twilight
Nautical Twilight
Astronomical Twilight
Moon
Length of Visible Light
Length of Day
Tomorrow will be .
, % of the Moon is Illuminated

Today's Extremes

State Highs State Lows

Community

WunderPhotos

Upload Photos

1,935,958 photos uploaded!

WunderBlog® & News

Nearby

Air Quality

  Air Quality AQ Index Pollutant
Not available.

Snow Depth

Station Depth Elevation

Earthquake Activity

City Distance Mag. Time & Date
Minimum magnitude displayed is 2.5.

Coastal Water Temperatures

Place Temperature

Stations

Nearby Weather Stations

Station Location Temp. Windchill Dew Point Humidity Wind Precip. Elev Updated Type
                   

Watches & Warnings

There are currently no watches in effect.